Terminal Aerodrome Forecast
Issued by NWS

Home | Current Version | Previous Version | Text Only | Print | Product List | Glossary On
Versions: 1 2 3 4 5 6 7 8 9 10 11 12 13 14 15 16 17
803
FTUS45 KRIW 180945 AAA
TAFCPR
TAF AMD
KCPR 180945Z 1810/1906 23030G42KT P6SM SCT150
     FM181100 23015G25KT P6SM SCT100 WS020/25045KT
     FM181600 02017G25KT P6SM OVC015
     FM181800 03012G18KT 3SM -SN OVC010
     FM182000 04011KT 1SM -SN OVC008=

USA.gov is the U.S. government's official web portal to all federal, state and local government web resources and services.